Time;durP1;ratioP1;P1;durP2;ratioP2;P2;SDS_P1;SDS_P2;PMS_P1;PMS_P2;Temp;Humidity;BMP_temperature;BMP_pressure;BME280_temperature;BME280_humidity;BME280_pressure;Samples;Min_cycle;Max_cycle;Signal;HPM_P1;HPM_P2
2022/05/05 00:01:42;;;;;;;9.90;5.80;;;13.30;80.50;;;11.99;88.46;96129.88;4795199;29;20358;-66
2022/05/05 00:04:09;;;;;;;7.13;5.63;;;13.30;80.40;;;11.94;88.68;96127.03;4804288;29;20378;-67
2022/05/05 00:06:36;;;;;;;6.70;5.57;;;13.20;80.60;;;11.93;89.06;96130.69;4809959;28;20213;-68
2022/05/05 00:09:03;;;;;;;7.07;6.07;;;13.30;80.70;;;11.93;88.81;96130.69;4831843;28;20705;-68
2022/05/05 00:14:23;;;;;;;6.78;5.35;;;13.30;80.70;;;11.89;88.40;96134.72;4833514;28;20754;-68
2022/05/05 00:16:57;;;;;;;6.13;5.53;;;13.20;80.80;;;11.85;89.31;96138.78;4826203;28;21039;-67
2022/05/05 00:19:24;;;;;;;6.30;5.28;;;13.10;80.90;;;11.81;89.10;96140.19;4845725;28;20168;-67
2022/05/05 00:21:50;;;;;;;7.35;5.85;;;13.10;81.10;;;11.76;89.01;96134.63;4801553;29;20492;-67
2022/05/05 00:24:16;;;;;;;5.60;5.00;;;13.10;81.30;;;11.75;89.65;96136.44;4828884;28;20333;-67
2022/05/05 00:26:43;;;;;;;5.68;5.07;;;13.10;81.20;;;11.72;89.73;96122.84;4839987;28;20339;-67
2022/05/05 00:29:09;;;;;;;5.70;5.10;;;13.10;81.30;;;11.69;89.73;96124.06;4802869;29;20505;-68
2022/05/05 00:31:36;;;;;;;5.50;4.80;;;13.00;81.20;;;11.67;89.03;96126.06;4810941;29;20410;-69
2022/05/05 00:34:02;;;;;;;6.32;4.70;;;12.90;81.00;;;11.64;88.93;96121.19;4811727;29;20431;-67
2022/05/05 00:36:28;;;;;;;6.28;4.45;;;12.90;81.20;;;11.62;89.00;96124.03;4795204;28;20495;-68
2022/05/05 00:38:54;;;;;;;5.93;4.75;;;12.90;81.10;;;11.61;89.47;96132.13;4796398;29;20338;-68
2022/05/05 00:41:21;;;;;;;6.13;4.60;;;12.90;81.20;;;11.59;89.39;96124.44;4819231;28;20172;-68
2022/05/05 00:43:47;;;;;;;5.70;4.63;;;12.90;81.20;;;11.57;89.43;96131.72;4812313;29;20219;-68
2022/05/05 00:46:13;;;;;;;5.60;4.30;;;12.90;81.10;;;11.49;89.30;96118.69;4785523;29;20396;-67
2022/05/05 00:48:43;;;;;;;5.00;4.50;;;12.80;81.40;;;11.51;90.01;96132.47;4801006;28;20356;-68
2022/05/05 00:51:10;;;;;;;5.68;4.75;;;12.80;81.40;;;11.49;89.27;96129.22;4822256;29;20439;-68
2022/05/05 00:53:36;;;;;;;5.07;4.50;;;12.80;81.40;;;11.48;89.99;96126.78;4797992;29;20482;-68
2022/05/05 00:56:11;;;;;;;5.95;4.50;;;12.80;81.20;;;11.47;90.24;96131.22;4787752;29;20323;-67
2022/05/05 00:58:37;;;;;;;10.07;4.80;;;12.70;81.20;;;11.50;90.04;96124.75;4824432;28;20505;-68
2022/05/05 01:01:04;;;;;;;5.10;4.32;;;12.80;81.20;;;11.48;90.24;96127.59;4803852;29;20746;-69
2022/05/05 01:03:34;;;;;;;7.72;4.40;;;12.80;81.10;;;11.49;90.48;96129.22;4813361;29;20288;-68
2022/05/05 01:06:02;;;;;;;4.83;4.33;;;12.90;81.10;;;11.47;90.24;96125.97;4810429;28;20376;-68
2022/05/05 01:08:29;;;;;;;7.60;4.53;;;12.90;81.00;;;11.48;89.08;96121.50;4812658;29;20607;-68
2022/05/05 01:10:55;;;;;;;6.25;4.50;;;12.90;81.00;;;11.49;90.22;96115.22;4807433;28;20359;-68
2022/05/05 01:13:22;;;;;;;5.88;4.68;;;12.90;81.00;;;11.52;90.64;96118.28;4780539;29;20210;-69
2022/05/05 01:15:49;;;;;;;7.20;4.80;;;13.00;81.00;;;11.57;89.99;96115.09;4794883;29;20709;-68
2022/05/05 01:18:15;;;;;;;5.35;3.85;;;13.10;80.60;;;11.58;90.34;96112.25;4796169;29;20435;-68
2022/05/05 01:20:46;;;;;;;5.18;4.68;;;13.10;80.60;;;11.62;90.75;96110.84;4822807;28;20215;-67
2022/05/05 01:23:12;;;;;;;4.90;4.38;;;13.10;80.60;;;11.64;90.09;96116.75;4809758;28;20461;-68
2022/05/05 01:28:24;;;;;;;4.88;4.45;;;13.10;80.40;;;11.60;90.16;96126.06;4831395;29;20387;-69
2022/05/05 01:30:50;;;;;;;4.82;4.32;;;13.10;80.40;;;11.58;89.88;96122.78;4824474;28;20373;-68
2022/05/05 01:33:22;;;;;;;5.55;4.28;;;13.00;80.50;;;11.59;89.87;96128.88;4803458;29;20326;-67
2022/05/05 01:35:55;;;;;;;6.78;4.13;;;13.00;80.50;;;11.55;89.86;96128.47;4807867;29;20263;-68
2022/05/05 01:38:24;;;;;;;6.45;4.80;;;12.90;80.70;;;11.53;89.82;96127.00;4837676;29;20210;-68
2022/05/05 01:40:50;;;;;;;4.95;4.45;;;12.90;80.80;;;11.53;89.72;96130.44;4798368;28;20929;-68
2022/05/05 01:43:18;;;;;;;4.95;4.40;;;13.00;80.80;;;11.54;90.33;96126.84;4815255;29;20271;-67
2022/05/05 01:45:44;;;;;;;4.93;4.43;;;13.00;81.00;;;11.54;90.19;96126.84;4806451;29;20377;-68
2022/05/05 01:48:10;;;;;;;5.70;4.72;;;13.00;80.60;;;11.53;90.54;96129.63;4796537;29;20837;-68
2022/05/05 01:50:36;;;;;;;6.40;4.43;;;12.90;80.70;;;11.54;89.86;96132.09;4813263;28;20813;-67
2022/05/05 01:53:03;;;;;;;5.07;4.57;;;13.00;80.80;;;11.53;90.64;96127.00;4794681;29;20298;-68
2022/05/05 01:55:32;;;;;;;5.57;4.50;;;13.00;81.00;;;11.54;90.51;96126.84;4797412;29;20494;-68
2022/05/05 01:57:59;;;;;;;4.93;4.22;;;13.00;80.80;;;11.54;90.36;96128.63;4788730;29;20364;-67
2022/05/05 02:00:25;;;;;;;5.32;4.65;;;13.00;80.80;;;11.53;90.40;96133.09;4828371;28;20742;-68
2022/05/05 02:02:51;;;;;;;5.80;5.20;;;13.00;80.80;;;11.52;89.90;96128.81;4807395;29;20302;-68
2022/05/05 02:05:18;;;;;;;7.88;4.90;;;13.00;80.90;;;11.51;90.05;96132.47;4824144;28;20318;-68
2022/05/05 02:07:44;;;;;;;5.28;4.63;;;13.00;80.80;;;11.49;90.13;96129.22;4811153;29;20573;-68
2022/05/05 02:10:15;;;;;;;5.20;4.70;;;12.90;80.60;;;11.45;90.00;96122.72;4824789;29;20789;-68
2022/05/05 02:12:42;;;;;;;;;;;12.80;80.60;;;11.41;91.73;96124.09;4798499;28;20588;-68
2022/05/05 02:15:09;;;;;;;5.13;4.63;;;12.80;80.90;;;11.37;89.79;96125.50;4824700;29;20529;-68
2022/05/05 02:17:37;;;;;;;4.88;4.38;;;12.70;81.10;;;11.33;89.79;96119.00;4808817;29;20775;-66
2022/05/05 02:20:05;;;;;;;5.63;4.55;;;12.70;80.80;;;11.32;90.51;96122.66;4813684;29;20299;-66
2022/05/05 02:22:31;;;;;;;5.25;4.53;;;12.70;80.90;;;11.27;90.30;96123.19;4793195;29;20361;-66
2022/05/05 02:24:57;;;;;;;6.95;5.07;;;12.70;81.00;;;11.25;90.51;96119.13;4802192;29;20311;-65
2022/05/05 02:27:23;;;;;;;6.43;5.15;;;12.70;81.10;;;11.23;90.04;96121.16;4834320;28;20291;-66
2022/05/05 02:29:50;;;;;;;5.03;4.53;;;12.60;81.00;;;11.18;89.95;96127.00;4773968;29;20790;-66
2022/05/05 02:32:16;;;;;;;8.15;4.28;;;12.60;80.80;;;11.13;89.85;96131.22;4803455;29;20508;-65
2022/05/05 02:34:43;;;;;;;4.90;4.45;;;12.50;81.20;;;11.13;89.82;96128.59;4815825;28;20796;-66
2022/05/05 02:39:54;;;;;;;14.15;12.68;;;12.50;81.20;;;11.08;90.21;96130.94;4847441;28;21031;-66
2022/05/05 02:42:22;;;;;;;7.82;6.28;;;12.50;81.40;;;11.07;90.23;96134.59;4805758;28;20790;-66
2022/05/05 02:44:48;;;;;;;5.13;4.55;;;12.40;81.20;;;11.02;90.05;96143.06;4814800;28;20443;-66
2022/05/05 02:47:14;;;;;;;5.28;4.50;;;12.40;81.10;;;10.96;90.83;96152.53;4804726;28;20602;-66
2022/05/05 02:49:41;;;;;;;6.00;4.90;;;12.30;81.30;;;10.90;90.56;96145.41;4807164;29;20685;-66
2022/05/05 02:52:07;;;;;;;5.30;4.38;;;12.30;81.50;;;10.89;90.22;96151.69;4844531;28;20742;-65
2022/05/05 02:54:51;;;;;;;11.90;8.80;;;12.30;81.50;;;10.88;90.86;96139.53;4834783;28;20408;-66
2022/05/05 02:57:23;;;;;;;7.10;6.30;;;12.30;81.50;;;10.89;90.89;96142.97;4816277;29;20710;-66
2022/05/05 02:59:50;;;;;;;6.90;5.47;;;12.40;81.60;;;10.89;91.52;96142.97;4810061;28;20323;-68
2022/05/05 03:02:16;;;;;;;5.55;4.65;;;12.30;81.40;;;10.89;91.37;96142.97;4806045;29;20396;-68
2022/05/05 03:04:42;;;;;;;5.05;4.50;;;12.40;81.20;;;10.88;90.75;96142.16;4808668;28;20372;-68
2022/05/05 03:07:08;;;;;;;7.68;4.30;;;12.40;81.20;;;10.86;91.51;96144.13;4825535;29;20250;-68
2022/05/05 03:09:34;;;;;;;5.25;4.57;;;12.40;81.30;;;10.86;90.75;96144.13;4842970;29;20608;-68
2022/05/05 03:12:01;;;;;;;6.60;4.70;;;12.30;81.40;;;10.84;90.78;96146.16;4833867;28;20218;-68
2022/05/05 03:14:27;;;;;;;4.80;4.30;;;12.30;81.50;;;10.84;90.72;96143.50;4810762;29;20330;-68
2022/05/05 03:16:53;;;;;;;6.50;4.78;;;12.30;81.50;;;10.85;91.60;96142.50;4816235;28;20667;-68
2022/05/05 03:19:19;;;;;;;5.00;4.28;;;12.30;81.50;;;10.85;92.04;96142.50;4822236;28;20295;-71
2022/05/05 03:21:45;;;;;;;5.80;4.40;;;12.40;81.50;;;10.83;90.99;96136.63;4795661;29;20359;-68
2022/05/05 03:24:11;;;;;;;5.32;4.82;;;12.30;81.60;;;10.82;92.00;96142.88;4818413;29;20498;-68
2022/05/05 03:26:39;;;;;;;7.80;6.97;;;12.30;81.60;;;10.79;91.26;96143.28;4810856;28;20418;-67
2022/05/05 03:29:05;;;;;;;9.85;8.20;;;12.20;81.60;;;10.77;90.89;96147.91;4826842;28;20459;-68
2022/05/05 03:31:32;;;;;;;9.93;7.65;;;12.30;81.80;;;10.77;91.91;96139.19;4831543;29;20777;-68
2022/05/05 03:33:59;;;;;;;7.68;6.85;;;12.20;81.80;;;10.76;91.75;96150.72;4826424;28;20494;-67
2022/05/05 03:36:25;;;;;;;9.13;7.63;;;12.20;81.80;;;10.72;91.78;96155.56;4830131;28;20278;-68
2022/05/05 03:38:54;;;;;;;7.40;6.65;;;12.20;81.90;;;10.73;91.91;96151.94;4828351;28;20358;-68
2022/05/05 03:41:21;;;;;;;6.10;5.22;;;12.20;82.20;;;10.73;92.73;96149.28;4799877;29;20338;-68
2022/05/05 03:43:47;;;;;;;5.55;5.00;;;12.20;82.10;;;10.68;92.90;96146.41;4802422;29;20308;-68
2022/05/05 03:46:13;;;;;;;7.40;6.00;;;12.10;82.20;;;10.65;93.11;96152.88;4806676;29;20463;-68
2022/05/05 03:48:39;;;;;;;6.82;5.32;;;12.10;82.40;;;10.62;92.08;96157.66;4811200;28;20660;-67
2022/05/05 03:51:05;;;;;;;6.85;5.40;;;12.00;82.50;;;10.56;93.03;96158.44;4832264;29;20539;-67
2022/05/05 03:53:32;;;;;;;6.68;6.07;;;11.90;82.90;;;10.52;93.00;96152.72;4788907;29;20310;-69
2022/05/05 03:55:58;;;;;;;6.53;5.40;;;11.90;83.10;;;10.51;92.56;96152.94;4813950;29;20295;-68
2022/05/05 03:58:26;;;;;;;8.50;5.85;;;12.00;83.10;;;10.53;92.95;96153.56;4843314;28;20374;-67
2022/05/05 04:00:52;;;;;;;7.32;6.30;;;12.00;82.90;;;10.52;92.96;96152.72;4822198;28;20453;-68
2022/05/05 04:03:34;;;;;;;7.30;6.25;;;12.10;82.80;;;10.56;94.06;96147.91;4816282;29;20365;-67
2022/05/05 04:06:05;;;;;;;6.97;5.85;;;12.10;82.60;;;10.60;94.20;96149.16;4792698;29;20455;-68
2022/05/05 04:08:31;;;;;;;8.18;5.53;;;12.20;82.50;;;10.63;93.64;96143.53;4843308;28;20958;-68
2022/05/05 04:10:57;;;;;;;8.00;6.13;;;12.20;82.40;;;10.69;93.09;96140.16;4825996;28;20355;-68
2022/05/05 04:13:25;;;;;;;8.48;6.65;;;12.30;82.30;;;10.71;93.72;96136.34;4799310;29;20428;-68
2022/05/05 04:15:51;;;;;;;11.35;7.65;;;12.40;82.60;;;10.77;93.80;96140.03;4798631;29;20584;-68
2022/05/05 04:18:17;;;;;;;6.55;5.70;;;12.40;82.20;;;10.79;93.68;96143.28;4838612;28;20585;-68
2022/05/05 04:20:43;;;;;;;5.82;5.22;;;12.40;81.60;;;10.82;93.64;96148.16;4808142;28;20351;-68
2022/05/05 04:23:10;;;;;;;6.90;5.50;;;12.40;81.50;;;10.87;93.71;96145.78;4805175;29;20624;-68
2022/05/05 04:25:43;;;;;;;6.95;5.80;;;12.50;81.60;;;10.89;92.51;96149.03;4806403;29;20426;-67
2022/05/05 04:28:10;;;;;;;6.15;5.43;;;12.50;81.10;;;10.91;92.38;96152.31;4825131;28;20324;-68
2022/05/05 04:30:37;;;;;;;6.40;5.45;;;12.60;81.10;;;10.94;93.08;96146.66;4793931;28;20403;-68
2022/05/05 04:33:03;;;;;;;6.00;5.28;;;12.60;81.20;;;10.97;92.73;96151.53;4805807;28;20871;-67
2022/05/05 04:35:30;;;;;;;8.05;5.95;;;12.60;81.40;;;10.99;92.70;96160.06;4827739;28;20359;-68
2022/05/05 04:37:56;;;;;;;7.78;5.47;;;12.60;81.30;;;11.01;92.82;96163.31;4819633;29;20221;-68
2022/05/05 04:40:22;;;;;;;7.85;5.35;;;12.60;81.30;;;11.01;92.78;96158.03;4836087;28;20351;-67
2022/05/05 04:42:48;;;;;;;8.02;6.45;;;12.60;81.60;;;11.03;93.03;96161.28;4804131;29;20524;-66
2022/05/05 04:45:15;;;;;;;17.10;14.95;;;12.70;81.50;;;11.08;93.53;96159.91;4779977;29;20547;-66
2022/05/05 04:47:42;;;;;;;12.15;10.82;;;12.70;81.30;;;11.09;93.44;96169.44;4793495;29;20360;-68
2022/05/05 04:50:09;;;;;;;16.10;11.75;;;12.80;81.20;;;11.14;92.63;96169.69;4802720;29;20449;-67
2022/05/05 04:52:35;;;;;;;8.95;6.22;;;12.80;81.10;;;11.13;93.00;96181.22;4801793;28;20288;-68
2022/05/05 04:55:01;;;;;;;8.52;6.00;;;12.70;80.80;;;11.12;93.12;96184.88;4804427;29;20215;-67
2022/05/05 04:57:27;;;;;;;6.25;5.65;;;12.70;80.90;;;11.09;93.19;96185.22;4798267;29;20663;-64
2022/05/05 04:59:53;;;;;;;7.97;5.35;;;12.70;81.20;;;11.10;92.34;96181.63;4810495;28;20363;-66
2022/05/05 05:02:19;;;;;;;6.38;5.30;;;12.70;81.10;;;11.13;92.38;96178.59;4795978;29;20371;-66
2022/05/05 05:04:45;;;;;;;7.07;5.30;;;12.80;80.70;;;11.18;92.72;96184.09;4824496;28;20570;-65
2022/05/05 05:07:11;;;;;;;6.47;5.78;;;12.90;80.90;;;11.23;92.44;96190.41;4790838;29;20516;-66
2022/05/05 05:09:37;;;;;;;6.10;5.47;;;13.00;80.70;;;11.29;93.19;96191.47;4801252;29;20812;-66
2022/05/05 05:12:04;;;;;;;8.52;5.53;;;13.10;80.30;;;11.33;92.08;96187.47;4801653;28;20310;-65
2022/05/05 05:14:30;;;;;;;6.30;5.70;;;13.10;80.20;;;11.40;92.25;96187.50;4785091;28;20434;-66
2022/05/05 05:16:56;;;;;;;6.10;5.50;;;13.10;80.00;;;11.47;92.74;96178.63;4811534;28;20359;-69
2022/05/05 05:19:22;;;;;;;6.65;5.63;;;13.20;79.80;;;11.53;92.20;96172.59;4803684;29;20350;-67
2022/05/05 05:21:48;;;;;;;6.75;6.07;;;13.40;79.50;;;11.60;91.81;96168.19;4807239;29;20580;-65
2022/05/05 05:24:15;;;;;;;7.93;6.00;;;13.50;79.20;;;11.65;91.36;96180.78;4795866;29;20333;-68
2022/05/05 05:26:41;;;;;;;8.25;5.68;;;13.50;78.90;;;11.70;91.48;96180.19;4779009;29;20323;-67
2022/05/05 05:29:07;;;;;;;6.05;5.45;;;13.50;79.10;;;11.75;91.19;96183.06;4810363;29;20371;-66
2022/05/05 05:31:33;;;;;;;8.38;6.25;;;13.60;78.90;;;11.83;90.77;96172.41;4816654;29;20303;-64
2022/05/05 05:33:59;;;;;;;6.38;5.75;;;13.60;78.60;;;11.90;90.92;96178.53;4798204;29;20251;-66
2022/05/05 05:36:26;;;;;;;18.98;15.40;;;13.70;78.00;;;11.98;90.40;96175.72;4819200;29;20503;-67
2022/05/05 05:38:52;;;;;;;12.38;9.35;;;13.90;77.90;;;12.08;90.16;96184.09;4833969;28;20570;-68
2022/05/05 05:41:18;;;;;;;9.98;8.50;;;14.00;77.20;;;12.18;89.84;96191.63;4818578;28;20568;-68
2022/05/05 05:43:44;;;;;;;7.70;6.40;;;14.20;77.30;;;12.24;89.45;96194.31;4790980;29;20322;-67
2022/05/05 05:46:10;;;;;;;7.47;6.68;;;14.20;76.40;;;12.31;89.28;96196.97;4790601;29;20326;-68
2022/05/05 05:48:38;;;;;;;6.57;5.90;;;14.30;76.60;;;12.41;89.28;96193.94;4799709;28;20359;-68
2022/05/05 05:51:06;;;;;;;11.02;6.40;;;14.40;76.80;;;12.47;88.16;96199.28;4816553;29;20493;-67
2022/05/05 05:53:32;;;;;;;9.25;6.25;;;14.50;75.50;;;12.54;87.79;96197.47;4826712;29;20339;-67
2022/05/05 05:55:58;;;;;;;7.45;6.05;;;14.60;75.10;;;12.61;87.20;96191.38;4777322;29;20412;-66
2022/05/05 05:58:24;;;;;;;7.10;5.60;;;14.60;74.90;;;12.67;86.93;96196.66;4788537;29;20502;-66
2022/05/05 06:00:50;;;;;;;6.88;5.78;;;14.70;74.90;;;12.71;86.74;96191.81;4779384;29;20796;-66
2022/05/05 06:06:01;;;;;;;6.70;6.00;;;14.70;74.50;;;12.80;86.58;96206.44;4813768;28;20347;-69
2022/05/05 06:08:27;;;;;;;8.85;6.93;;;14.80;74.20;;;12.80;86.18;96201.97;4825257;29;20357;-68
2022/05/05 06:10:53;;;;;;;7.47;6.57;;;14.70;75.00;;;12.84;86.59;96208.50;4827120;28;20685;-65
2022/05/05 06:13:20;;;;;;;7.55;5.82;;;14.80;74.70;;;12.92;85.88;96209.34;4783167;29;20372;-65
2022/05/05 06:15:46;;;;;;;10.35;6.95;;;14.90;74.60;;;12.96;85.88;96210.56;4812041;29;20650;-67
2022/05/05 06:18:12;;;;;;;9.35;6.38;;;14.90;74.30;;;13.00;85.76;96209.13;4797482;29;20363;-67
2022/05/05 06:20:38;;;;;;;6.80;6.13;;;15.00;74.60;;;13.05;85.59;96206.69;4786174;28;20359;-66
2022/05/05 06:23:04;;;;;;;6.72;5.85;;;15.00;74.40;;;13.05;86.11;96217.25;4787707;29;20353;-67
2022/05/05 06:25:30;;;;;;;10.68;5.97;;;14.90;74.10;;;13.06;86.18;96211.78;4807074;29;20498;-67
2022/05/05 06:27:59;;;;;;;13.45;6.00;;;15.10;74.50;;;13.12;85.02;96208.31;4812412;29;20067;-66
2022/05/05 06:30:25;;;;;;;10.25;6.68;;;15.10;74.00;;;13.13;84.72;96207.34;4854654;28;20583;-68
2022/05/05 06:32:51;;;;;;;12.38;6.93;;;15.10;73.60;;;13.22;85.61;96212.44;4831983;28;20371;-66
2022/05/05 06:35:17;;;;;;;9.05;7.35;;;15.30;74.20;;;13.26;84.92;96208.38;4806245;29;20416;-66
2022/05/05 06:37:43;;;;;;;12.25;7.30;;;15.30;72.70;;;13.34;84.71;96213.44;4806825;29;20615;-67
2022/05/05 06:40:10;;;;;;;8.20;7.40;;;15.80;71.70;;;13.44;84.74;96200.66;4833637;28;20576;-66
2022/05/05 06:42:36;;;;;;;9.38;6.97;;;16.00;70.60;;;13.57;84.61;96207.75;4805927;28;20362;-67
2022/05/05 06:45:03;;;;;;;7.43;6.60;;;16.30;70.20;;;13.75;83.41;96210.56;4801333;28;20363;-65
2022/05/05 06:47:29;;;;;;;10.00;7.07;;;16.80;68.40;;;13.96;84.22;96207.69;4815553;28;20385;-63
2022/05/05 06:49:55;;;;;;;7.65;6.85;;;17.20;67.50;;;14.21;82.79;96201.72;4803107;29;20315;-62
2022/05/05 06:52:21;;;;;;;7.72;6.90;;;17.60;66.30;;;14.46;82.08;96202.66;4805685;29;20766;-64
2022/05/05 06:54:47;;;;;;;7.88;7.07;;;18.10;64.40;;;14.75;82.37;96206.59;4758631;29;20503;-64
2022/05/05 06:57:14;;;;;;;8.45;7.20;;;18.60;62.80;;;15.04;81.38;96202.56;4792877;29;20352;-65
2022/05/05 06:59:40;;;;;;;9.10;7.25;;;18.70;61.60;;;15.28;80.25;96209.72;4825654;28;20415;-65
2022/05/05 07:02:06;;;;;;;8.55;7.43;;;18.80;61.40;;;15.53;79.51;96203.59;4805304;29;20383;-66
2022/05/05 07:07:19;;;;;;;8.25;7.20;;;19.40;60.40;;;16.00;77.33;96222.56;4796040;29;20721;-66
2022/05/05 07:12:30;;;;;;;8.32;7.53;;;19.60;58.00;;;16.34;75.58;96223.84;4801458;29;20401;-65
2022/05/05 07:14:57;;;;;;;8.95;7.72;;;19.60;58.50;;;16.41;75.05;96228.06;4784126;29;20333;-62
2022/05/05 07:17:23;;;;;;;9.35;8.25;;;19.50;59.40;;;16.47;73.70;96236.97;4816946;29;20347;-66
2022/05/05 07:19:50;;;;;;;8.15;7.35;;;19.70;58.20;;;16.65;74.20;96233.50;4823031;29;20565;-68
2022/05/05 07:22:16;;;;;;;8.88;7.97;;;20.20;57.30;;;16.79;72.24;96240.28;4846394;29;20364;-66
2022/05/05 07:24:42;;;;;;;9.93;7.55;;;20.30;55.60;;;16.91;71.42;96237.66;4827937;28;20522;-66
2022/05/05 07:27:08;;;;;;;8.75;7.65;;;20.50;53.40;;;17.03;70.94;96239.34;4837942;28;20480;-67
2022/05/05 07:29:34;;;;;;;8.38;7.40;;;20.70;54.50;;;17.24;71.58;96237.22;4809226;29;20411;-63
2022/05/05 07:32:00;;;;;;;8.63;7.57;;;21.00;54.40;;;17.44;70.65;96232.41;4817975;29;20421;-66
2022/05/05 07:34:26;;;;;;;8.32;7.45;;;21.20;52.80;;;17.62;69.77;96229.66;4809512;28;20633;-68
2022/05/05 07:36:52;;;;;;;7.70;6.78;;;21.60;52.00;;;17.89;68.38;96231.91;4795045;28;20446;-65
2022/05/05 07:39:18;;;;;;;8.30;7.30;;;22.00;49.90;;;18.14;67.90;96235.13;4811161;28;20344;-67
2022/05/05 07:41:44;;;;;;;7.45;6.63;;;22.50;49.50;;;18.36;68.23;96235.34;4802452;29;20414;-67
2022/05/05 07:44:10;;;;;;;8.13;6.72;;;22.60;49.50;;;18.57;66.80;96237.38;4810925;29;20889;-66
2022/05/05 07:46:36;;;;;;;9.13;6.80;;;22.60;47.70;;;18.74;65.54;96248.13;4793760;28;20459;-69
2022/05/05 07:49:05;;;;;;;9.10;7.03;;;22.60;47.40;;;18.87;64.18;96247.84;4809864;29;20326;-70
2022/05/05 07:51:35;;;;;;;9.32;7.00;;;23.00;46.70;;;19.11;62.14;96258.44;4809098;29;20438;-69
2022/05/05 07:56:46;;;;;;;7.28;6.57;;;22.90;48.00;;;19.40;62.45;96257.34;4808368;28;20325;-66
2022/05/05 07:59:12;;;;;;;7.53;6.68;;;23.00;48.10;;;19.54;62.36;96248.03;4783683;29;20336;-66
2022/05/05 08:01:38;;;;;;;6.85;6.25;;;23.40;46.90;;;19.80;61.82;96251.91;4790610;29;20683;-65
2022/05/05 08:04:04;;;;;;;7.65;6.10;;;24.00;45.50;;;20.09;61.29;96251.81;4766807;29;20587;-68
2022/05/05 08:06:31;;;;;;;6.40;5.70;;;24.00;45.80;;;20.32;61.43;96256.13;4799432;28;20566;-67
2022/05/05 08:08:58;;;;;;;7.00;5.88;;;24.10;46.10;;;20.51;60.43;96262.84;4837734;28;20399;-67
2022/05/05 08:11:24;;;;;;;6.45;5.75;;;24.00;45.60;;;20.64;58.92;96257.16;4828277;28;20590;-67
2022/05/05 08:13:50;;;;;;;7.20;6.28;;;24.00;44.90;;;20.78;58.67;96247.69;4806120;29;20411;-65
2022/05/05 08:16:19;;;;;;;6.70;6.10;;;24.30;44.80;;;20.90;58.66;96249.44;4809484;29;20326;-64
2022/05/05 08:18:45;;;;;;;7.13;5.82;;;24.10;45.50;;;21.01;58.37;96251.13;4802288;28;20325;-67
2022/05/05 08:21:11;;;;;;;7.63;6.18;;;24.30;45.50;;;21.11;57.78;96256.63;4784577;29;20517;-66
2022/05/05 08:23:38;;;;;;;5.78;5.18;;;24.50;44.90;;;21.21;57.47;96258.56;4809775;29;20773;-64
2022/05/05 08:28:48;;;;;;;7.15;5.72;;;24.40;44.70;;;21.37;56.96;96265.72;4811783;28;20347;-65
2022/05/05 08:31:14;;;;;;;6.60;6.00;;;24.50;45.60;;;21.43;56.09;96263.91;4824934;29;20454;-66
2022/05/05 08:33:41;;;;;;;6.15;5.45;;;24.50;44.10;;;21.45;55.92;96256.44;4793377;29;20206;-66
2022/05/05 08:36:07;;;;;;;5.30;4.80;;;24.40;44.30;;;21.54;55.58;96254.91;4808855;29;20484;-66
2022/05/05 08:38:33;;;;;;;5.90;5.05;;;24.60;44.60;;;21.61;55.81;96258.19;4801852;28;20353;-65
2022/05/05 08:41:00;;;;;;;5.38;4.88;;;24.70;44.20;;;21.70;55.49;96256.66;4845136;28;20294;-65
2022/05/05 08:43:26;;;;;;;5.43;4.93;;;25.00;44.00;;;21.86;54.75;96257.59;4823846;29;20601;-66
2022/05/05 08:45:56;;;;;;;6.50;5.53;;;25.30;43.00;;;22.03;54.55;96263.63;4817616;29;20306;-66
2022/05/05 08:48:22;;;;;;;5.45;4.82;;;25.50;42.70;;;22.21;53.34;96259.75;4801382;28;20462;-67
2022/05/05 08:50:56;;;;;;;6.63;5.35;;;25.60;41.20;;;22.36;50.14;96269.75;4798696;29;20400;-66
2022/05/05 08:53:24;;;;;;;7.03;5.43;;;26.00;40.00;;;22.55;52.98;96269.06;4816714;28;20364;-67
2022/05/05 08:55:50;;;;;;;5.50;4.80;;;26.40;40.70;;;22.76;52.45;96263.78;4793289;29;20299;-67
2022/05/05 08:58:16;;;;;;;5.95;5.05;;;26.60;40.40;;;22.97;51.27;96262.81;4777954;29;20354;-66
2022/05/05 09:00:43;;;;;;;5.57;4.15;;;26.60;38.80;;;23.08;51.33;96264.47;4792848;28;20290;-66
2022/05/05 09:03:10;;;;;;;4.45;3.88;;;26.50;40.10;;;23.22;49.82;96270.16;4778224;29;20333;-67
2022/05/05 09:05:46;;;;;;;5.88;3.80;;;26.60;38.50;;;23.26;45.96;96273.09;4831978;28;20436;-67
2022/05/05 09:08:27;;;;;;;7.35;3.22;;;26.30;36.90;;;23.20;45.42;96273.09;4824973;28;20327;-67
2022/05/05 09:10:55;;;;;;;3.83;3.42;;;26.10;38.00;;;23.18;47.66;96267.19;4846732;28;20212;-65
2022/05/05 09:13:25;;;;;;;4.68;3.60;;;26.00;37.00;;;23.22;47.50;96260.22;4822533;29;20214;-67
2022/05/05 09:15:53;;;;;;;5.22;3.40;;;26.40;37.20;;;23.36;46.31;96257.03;4821120;29;20359;-66
2022/05/05 09:18:26;;;;;;;3.75;3.40;;;26.60;36.20;;;23.41;44.17;96257.84;4819081;28;20372;-67
2022/05/05 09:20:52;;;;;;;3.97;3.50;;;26.60;35.90;;;23.45;45.89;96260.78;4834588;28;20316;-66
2022/05/05 09:26:27;;;;;;;4.85;4.30;;;26.70;35.60;;;23.59;45.41;96263.81;4810494;29;20547;-66
2022/05/05 09:28:54;;;;;;;5.70;4.72;;;26.90;36.50;;;23.57;45.71;96266.75;4802112;28;20769;-66
2022/05/05 09:31:21;;;;;;;6.47;4.45;;;26.30;36.60;;;23.39;45.61;96264.56;4811476;29;20441;-66
2022/05/05 09:33:47;;;;;;;5.85;4.00;;;26.20;37.70;;;23.45;45.51;96266.16;4831182;29;20599;-64
2022/05/05 09:36:25;;;;;;;5.82;4.00;;;26.60;38.80;;;23.49;44.59;96270.72;4767217;29;20206;-65
2022/05/05 09:39:03;;;;;;;4.35;3.63;;;26.50;37.70;;;23.59;44.43;96253.88;4832813;28;20210;-66
2022/05/05 09:41:34;;;;;;;5.35;4.15;;;26.90;37.40;;;23.84;44.33;96253.06;4809372;29;20366;-64
2022/05/05 09:44:14;;;;;;;4.45;3.70;;;27.60;36.00;;;24.02;43.77;96257.09;4797528;29;20246;-67
2022/05/05 09:46:43;;;;;;;5.95;3.90;;;27.80;35.10;;;24.16;44.15;96252.75;4825904;29;20700;-66
2022/05/05 09:49:17;;;;;;;6.65;3.83;;;28.20;33.40;;;24.37;41.52;96253.56;4796881;29;20203;-67
2022/05/05 09:57:41;;;;;;;4.65;3.55;;;29.30;30.60;;;25.15;42.61;96251.16;4816085;29;20991;-65
2022/05/05 10:05:52;;;;;;;4.15;2.90;;;31.10;28.90;;;26.47;37.91;96238.53;4821943;28;20210;-65
2022/05/05 10:08:29;;;;;;;4.35;2.90;;;31.90;27.40;;;26.90;38.19;96243.97;4808782;29;20363;-64
2022/05/05 10:10:56;;;;;;;3.50;3.15;;;32.30;28.00;;;27.01;40.06;96249.00;4839442;28;20286;-64
2022/05/05 10:13:23;;;;;;;3.15;2.60;;;31.50;28.30;;;27.14;39.76;96239.38;4847397;28;20537;-64
2022/05/05 10:15:50;;;;;;;3.85;2.95;;;32.10;27.70;;;27.52;38.98;96239.38;4793526;29;20571;-65
2022/05/05 10:18:19;;;;;;;6.00;2.47;;;32.60;27.50;;;27.97;38.30;96235.16;4811990;29;20353;-66
2022/05/05 10:20:45;;;;;;;3.10;2.55;;;33.60;28.50;;;28.37;38.85;96244.50;4794150;28;20307;-65
2022/05/05 10:23:21;;;;;;;3.30;2.63;;;33.60;26.50;;;28.79;35.50;96229.09;4800609;29;20482;-65
2022/05/05 10:25:53;;;;;;;3.40;2.60;;;34.50;26.00;;;29.35;34.09;96230.59;4829385;28;20488;-65
2022/05/05 10:28:44;;;;;;;3.15;2.55;;;35.20;24.10;;;29.90;32.98;96231.25;4797484;29;20390;-67
2022/05/05 10:31:31;;;;;;;2.80;2.50;;;35.90;23.40;;;30.37;31.92;96224.34;4839833;28;20572;-68
2022/05/05 10:33:59;;;;;;;3.40;2.60;;;36.30;23.80;;;30.67;35.09;96211.06;4831609;28;20207;-67
2022/05/05 10:36:25;;;;;;;2.67;2.33;;;36.50;23.50;;;31.03;34.09;96208.94;4816811;28;20589;-68
2022/05/05 10:38:52;;;;;;;4.53;2.90;;;37.00;22.40;;;31.19;34.68;96216.63;4812385;28;20482;-67
2022/05/05 10:41:31;;;;;;;2.67;2.22;;;35.80;23.30;;;31.05;31.71;96208.63;4829382;29;20406;-67
2022/05/05 10:44:22;;;;;;;3.47;2.90;;;35.60;23.80;;;31.12;30.16;96210.84;4842550;28;20691;-67
2022/05/05 10:47:02;;;;;;;4.05;2.50;;;35.80;22.60;;;31.43;30.35;96203.38;4825714;28;20470;-68
2022/05/05 10:49:31;;;;;;;3.50;2.30;;;36.60;22.70;;;31.70;31.65;96205.00;4791002;29;20195;-67
2022/05/05 10:52:22;;;;;;;2.28;1.88;;;36.80;23.50;;;32.09;29.65;96206.69;4829560;29;20767;-66
2022/05/05 10:54:48;;;;;;;5.35;2.45;;;37.40;23.00;;;32.06;32.11;96201.91;4826014;28;20195;-67
2022/05/05 10:57:26;;;;;;;3.67;2.72;;;36.00;23.00;;;31.59;28.86;96204.50;4811640;29;20462;-66